createdAt,value
2023-04-27T00:04:41.550Z,1.87
2023-04-27T00:14:43.938Z,1.21
2023-04-27T00:24:46.086Z,1.59
2023-04-27T00:34:48.203Z,1.20
2023-04-27T00:44:50.442Z,0.76
2023-04-27T00:54:52.791Z,0.79
2023-04-27T01:04:56.232Z,0.58
2023-04-27T01:14:58.479Z,0.59
2023-04-27T01:25:01.098Z,0.59
2023-04-27T01:35:03.473Z,0.77
2023-04-27T01:45:06.084Z,0.72
2023-04-27T01:55:08.534Z,0.90
2023-04-27T02:05:10.946Z,0.96
2023-04-27T02:15:13.225Z,0.25
2023-04-27T02:25:15.813Z,0.45
2023-04-27T02:35:18.324Z,0.25
2023-04-27T02:45:20.416Z,0.01
2023-04-27T02:55:22.665Z,0.20
2023-04-27T03:05:28.229Z,-0.06
2023-04-27T03:15:30.343Z,0.02
2023-04-27T03:25:32.454Z,-0.24
2023-04-27T03:35:35.022Z,-0.33
2023-04-27T03:45:37.191Z,-0.42
2023-04-27T03:55:44.199Z,-0.19
2023-04-27T04:05:47.399Z,-0.44
2023-04-27T04:15:49.986Z,-0.48
2023-04-27T04:25:53.078Z,-0.73
2023-04-27T04:35:55.913Z,-0.51
2023-04-27T04:45:58.401Z,-0.14
2023-04-27T04:56:09.044Z,0.24
2023-04-27T05:06:11.283Z,0.42
2023-04-27T05:16:13.415Z,0.37
2023-04-27T05:26:18.822Z,0.65
2023-04-27T05:36:21.073Z,0.80
2023-04-27T05:46:23.222Z,0.75
2023-04-27T05:56:26.086Z,1.64
2023-04-27T06:06:31.647Z,1.82
2023-04-27T06:16:33.740Z,1.83
2023-04-27T06:26:36.015Z,2.03
2023-04-27T06:36:38.224Z,2.49
2023-04-27T06:46:40.488Z,2.42
2023-04-27T06:56:42.805Z,2.82
2023-04-27T07:06:44.883Z,3.19
2023-04-27T07:16:47.306Z,3.11
2023-04-27T07:26:49.428Z,2.99
2023-04-27T07:36:54.558Z,3.64
2023-04-27T07:46:58.429Z,3.93
2023-04-27T07:57:00.543Z,4.36
2023-04-27T08:07:03.268Z,4.22
2023-04-27T08:17:05.744Z,4.70
2023-04-27T08:27:08.130Z,4.90
2023-04-27T08:37:10.368Z,5.60
2023-04-27T08:47:12.544Z,5.69
2023-04-27T08:57:16.282Z,5.92
2023-04-27T09:07:18.467Z,6.12
2023-04-27T09:17:25.010Z,6.23
2023-04-27T09:27:27.257Z,5.97
2023-04-27T09:37:30.055Z,6.96
2023-04-27T09:47:34.091Z,6.97
2023-04-27T09:57:41.048Z,6.93
2023-04-27T10:07:44.262Z,7.60
2023-04-27T10:17:51.113Z,7.33
2023-04-27T10:28:01.872Z,7.50
2023-04-27T10:38:15.439Z,7.71
2023-04-27T10:48:17.540Z,8.29
2023-04-27T10:58:23.436Z,7.76
2023-04-27T11:08:25.952Z,8.47
2023-04-27T11:18:31.488Z,7.93
2023-04-27T11:28:33.526Z,8.75
2023-04-27T11:38:35.990Z,8.39
2023-04-27T11:48:38.571Z,9.03
2023-04-27T11:58:40.734Z,8.76
2023-04-27T12:08:42.806Z,9.52
2023-04-27T12:18:44.836Z,9.55
2023-04-27T12:28:46.945Z,9.63
2023-04-27T12:38:49.008Z,9.18
2023-04-27T12:48:51.111Z,9.40
2023-04-27T12:58:53.201Z,10.00
2023-04-27T13:08:55.982Z,9.15
2023-04-27T13:18:58.027Z,9.73
2023-04-27T13:29:00.688Z,9.49
2023-04-27T13:39:02.818Z,9.85
2023-04-27T13:49:04.956Z,10.65
2023-04-27T13:59:07.205Z,10.26
2023-04-27T14:09:09.332Z,10.04
2023-04-27T14:19:14.953Z,10.11
2023-04-27T14:29:18.153Z,10.26
2023-04-27T14:39:21.190Z,10.06
2023-04-27T14:49:23.250Z,10.25
2023-04-27T14:59:25.492Z,10.39
2023-04-27T15:09:27.682Z,10.26
2023-04-27T15:19:29.826Z,9.95
2023-04-27T15:29:31.976Z,10.41
2023-04-27T15:39:34.173Z,10.07
2023-04-27T15:49:45.771Z,9.87
2023-04-27T15:59:52.446Z,10.37
2023-04-27T16:09:55.554Z,9.51
2023-04-27T16:19:57.992Z,9.59
2023-04-27T16:30:00.118Z,10.11
2023-04-27T16:40:06.325Z,10.09
2023-04-27T16:50:09.268Z,9.79
2023-04-27T17:00:12.148Z,9.76
2023-04-27T17:10:14.296Z,9.00
2023-04-27T17:20:16.831Z,9.36
2023-04-27T17:30:19.030Z,9.35
2023-04-27T17:40:21.221Z,9.21
2023-04-27T17:50:24.725Z,8.84
2023-04-27T18:00:27.113Z,8.88
2023-04-27T18:10:29.274Z,8.39
2023-04-27T18:20:31.408Z,8.63
2023-04-27T18:30:33.610Z,8.49
2023-04-27T18:40:36.499Z,8.50
2023-04-27T18:50:38.693Z,8.12
2023-04-27T19:00:40.822Z,8.51
2023-04-27T19:10:42.938Z,7.64
2023-04-27T19:20:45.100Z,8.13
2023-04-27T19:30:47.772Z,8.19
2023-04-27T19:40:49.830Z,7.98
2023-04-27T19:50:51.887Z,7.95
2023-04-27T20:00:54.026Z,7.99
2023-04-27T20:10:56.075Z,7.90
2023-04-27T20:20:59.402Z,8.43
2023-04-27T20:31:01.563Z,8.21
2023-04-27T20:41:04.936Z,8.04
2023-04-27T20:51:07.070Z,7.55
2023-04-27T21:01:09.335Z,7.78
2023-04-27T21:11:11.958Z,7.27
2023-04-27T21:21:14.021Z,7.50
2023-04-27T21:31:17.348Z,7.42
2023-04-27T21:41:20.267Z,7.21
2023-04-27T21:51:22.432Z,7.56
2023-04-27T22:01:26.984Z,7.53
2023-04-27T22:11:29.257Z,7.58
2023-04-27T22:21:31.328Z,7.21
2023-04-27T22:31:34.304Z,7.04
2023-04-27T22:41:36.682Z,7.01
2023-04-27T22:51:38.777Z,7.10
2023-04-27T23:01:40.858Z,7.34
2023-04-27T23:11:43.040Z,7.25
2023-04-27T23:21:45.344Z,7.21
2023-04-27T23:31:47.456Z,7.21
2023-04-27T23:41:49.620Z,7.24
2023-04-27T23:51:52.603Z,7.16
